Time;durP1;ratioP1;P1;durP2;ratioP2;P2;SDS_P1;SDS_P2;PMS_P1;PMS_P2;Temp;Humidity;BMP_temperature;BMP_pressure;BME280_temperature;BME280_humidity;BME280_pressure;Samples;Min_cycle;Max_cycle;Signal;HPM_P1;HPM_P2
2022/12/26 00:00:14;;;;;;;43.70;24.80;;;;;;;3.61;99.31;100349.05;100191;1290;97819;-66
2022/12/26 00:03:02;;;;;;;45.30;24.90;;;;;;;3.58;99.24;100348.17;100104;1293;113426;-66
2022/12/26 00:05:29;;;;;;;42.50;24.40;;;;;;;3.56;99.30;100348.00;100056;1284;138593;-66
2022/12/26 00:07:57;;;;;;;44.60;26.30;;;;;;;3.55;99.30;100353.15;99931;1293;98487;-66
2022/12/26 00:10:23;;;;;;;46.70;25.90;;;;;;;3.53;99.32;100354.54;100055;1290;138821;-66
2022/12/26 00:12:50;;;;;;;46.60;26.20;;;;;;;3.51;99.40;100349.39;100066;1294;97858;-67
2022/12/26 00:15:18;;;;;;;44.10;25.30;;;;;;;3.50;99.22;100349.73;100254;1285;111303;-66
2022/12/26 00:17:45;;;;;;;42.60;25.10;;;;;;;3.48;99.52;100343.56;99936;1293;140186;-66
2022/12/26 00:20:13;;;;;;;47.60;25.90;;;;;;;3.48;99.17;100339.95;100323;1293;98694;-66
2022/12/26 00:22:40;;;;;;;45.10;26.20;;;;;;;3.46;99.25;100345.63;100274;1294;138131;-66
2022/12/26 00:25:08;;;;;;;46.10;25.90;;;;;;;3.44;99.38;100343.58;100018;1284;97807;-66
2022/12/26 00:27:35;;;;;;;47.80;26.40;;;;;;;3.44;99.39;100345.30;100646;1285;138511;-67
2022/12/26 00:30:03;;;;;;;43.20;25.60;;;;;;;3.42;99.50;100349.42;99877;1291;107777;-66
2022/12/26 00:32:31;;;;;;;46.30;25.90;;;;;;;3.42;99.47;100332.92;100038;1293;97748;-67
2022/12/26 00:34:58;;;;;;;48.90;24.90;;;;;;;3.42;99.67;100328.96;99925;1293;138276;-66
2022/12/26 00:37:25;;;;;;;47.30;26.60;;;;;;;3.41;99.74;100323.13;99985;1286;97849;-66
2022/12/26 00:39:52;;;;;;;42.20;25.00;;;;;;;3.41;99.65;100322.27;100044;1293;138269;-67
2022/12/26 00:42:19;;;;;;;44.70;26.70;;;;;;;3.42;99.63;100324.85;100024;1293;107825;-66
2022/12/26 00:44:46;;;;;;;48.50;25.70;;;;;;;3.41;99.70;100325.02;100083;1294;98420;-66
2022/12/26 00:47:13;;;;;;;41.70;24.60;;;;;;;3.42;99.93;100332.41;100265;1293;138672;-66
2022/12/26 00:49:40;;;;;;;44.70;26.40;;;;;;;3.43;99.89;100337.73;99928;1293;97829;-66
2022/12/26 00:52:28;;;;;;;42.60;26.20;;;;;;;3.44;99.97;100335.66;100156;1292;138131;-66
2022/12/26 00:54:55;;;;;;;45.70;24.60;;;;;;;3.45;99.99;100331.36;99993;1294;107412;-67
2022/12/26 00:57:22;;;;;;;44.30;26.00;;;;;;;3.47;100.00;100336.00;100174;1293;98467;-67
2022/12/26 00:59:49;;;;;;;43.20;25.90;;;;;;;3.48;100.00;100336.68;99876;1294;138518;-67
2022/12/26 01:05:02;;;;;;;42.10;23.50;;;;;;;3.52;100.00;100320.85;100109;1293;138328;-66
2022/12/26 01:07:32;;;;;;;46.80;27.50;;;;;;;3.51;100.00;100293.18;99914;1293;108179;-66
2022/12/26 01:09:59;;;;;;;43.10;25.10;;;;;;;3.55;100.00;100294.02;99849;1294;138597;-67
2022/12/26 01:12:27;;;;;;;45.90;25.00;;;;;;;3.58;100.00;100305.36;99959;1284;107654;-67
2022/12/26 01:14:56;;;;;;;42.80;24.90;;;;;;;3.59;100.00;100303.83;99942;1293;97833;-67
2022/12/26 01:17:24;;;;;;;43.10;25.10;;;;;;;3.60;100.00;100290.08;99871;1294;138435;-66
2022/12/26 01:19:51;;;;;;;38.90;24.80;;;;;;;3.62;100.00;100276.48;99962;1299;107638;-67
2022/12/26 01:22:19;;;;;;;40.80;24.60;;;;;;;3.64;100.00;100278.02;99842;1293;138534;-67
2022/12/26 01:24:47;;;;;;;45.30;24.10;;;;;;;3.65;99.97;100279.21;100003;1290;110212;-66
2022/12/26 01:27:15;;;;;;;43.50;25.50;;;;;;;3.68;99.96;100278.69;99939;1292;97350;-66
2022/12/26 01:29:42;;;;;;;42.30;24.90;;;;;;;3.70;99.91;100280.05;99862;1292;137935;-67
2022/12/26 01:32:09;;;;;;;38.70;23.80;;;;;;;3.72;99.96;100266.45;99901;1293;107821;-66
2022/12/26 01:34:36;;;;;;;42.40;25.40;;;;;;;3.74;99.90;100266.27;100089;1293;138559;-66
2022/12/26 01:37:04;;;;;;;41.60;24.40;;;;;;;3.74;99.75;100270.22;100265;1294;106472;-66
2022/12/26 01:39:31;;;;;;;40.90;24.50;;;;;;;3.73;99.83;100276.94;99937;1293;97855;-66
2022/12/26 01:41:59;;;;;;;39.70;24.30;;;;;;;3.74;99.74;100282.27;99908;1287;111387;-66
2022/12/26 01:44:59;;;;;;;39.30;23.40;;;;;;;3.75;99.59;100276.41;99887;1294;107735;-66
2022/12/26 01:47:42;;;;;;;36.30;22.30;;;;;;;3.74;99.80;100284.33;100133;1293;138461;-66
2022/12/26 01:50:21;;;;;;;37.90;23.40;;;;;;;3.74;99.83;100280.20;100009;1293;107565;-66
2022/12/26 01:52:49;;;;;;;39.90;23.00;;;;;;;3.74;99.92;100273.84;99841;1286;138649;-66
2022/12/26 01:55:20;;;;;;;42.60;24.60;;;;;;;3.74;99.97;100275.21;99970;1293;111499;-67
2022/12/26 01:57:55;;;;;;;37.10;22.40;;;;;;;3.75;99.93;100277.45;99900;1293;140157;-66
2022/12/26 02:00:22;;;;;;;41.40;23.70;;;;;;;3.74;99.97;100263.86;100271;1289;99490;-65
2022/12/26 02:05:35;;;;;;;40.00;23.30;;;;;;;3.72;100.00;100263.19;100054;1295;138737;-66
2022/12/26 02:08:05;;;;;;;37.20;22.80;;;;;;;3.70;100.00;100261.13;100112;1301;111329;-66
2022/12/26 02:10:35;;;;;;;36.60;22.40;;;;;;;3.67;100.00;100265.29;100039;1289;140103;-67
2022/12/26 02:13:04;;;;;;;36.00;20.90;;;;;;;3.63;100.00;100260.31;100044;1287;97729;-66
2022/12/26 02:15:32;;;;;;;40.40;23.40;;;;;;;3.60;100.00;100251.56;99904;1293;108444;-66
2022/12/26 02:17:59;;;;;;;40.90;23.10;;;;;;;3.57;100.00;100252.41;99926;1293;98125;-66
2022/12/26 02:20:33;;;;;;;38.20;22.90;;;;;;;3.54;100.00;100236.95;99948;1291;111725;-66
2022/12/26 02:23:46;;;;;;;42.60;24.40;;;;;;;3.50;100.00;100241.44;99810;1290;138521;-66
2022/12/26 02:26:58;;;;;;;41.70;24.60;;;;;;;3.46;100.00;100225.14;99481;1292;99530;-66
2022/12/26 02:29:52;;;;;;;43.60;25.70;;;;;;;3.42;100.00;100232.38;99393;1298;138688;-66
2022/12/26 02:32:25;;;;;;;45.30;26.80;;;;;;;3.39;100.00;100224.28;99509;1302;98504;-67
2022/12/26 02:35:03;;;;;;;48.00;26.40;;;;;;;3.36;100.00;100215.36;99209;1295;138524;-67
2022/12/26 02:37:49;;;;;;;45.00;27.10;;;;;;;3.34;100.00;100211.76;99243;1285;107731;-67
2022/12/26 02:40:30;;;;;;;46.40;26.40;;;;;;;3.34;100.00;100204.38;99179;1299;139637;-67
2022/12/26 02:43:03;;;;;;;47.70;28.60;;;;;;;3.33;100.00;100201.46;99438;1303;108149;-66
2022/12/26 02:48:39;;;;;;;52.30;29.80;;;;;;;3.31;100.00;100190.81;99350;1302;112205;-66
2022/12/26 03:14:17;;;;;;;55.80;32.30;;;;;;;3.21;100.00;100148.56;99152;1295;97860;-66
2022/12/26 03:19:56;;;;;;;54.20;31.70;;;;;;;3.19;100.00;100136.20;99070;1302;107897;-66
2022/12/26 03:22:34;;;;;;;54.10;30.40;;;;;;;3.18;100.00;100131.75;99055;1295;139297;-66
2022/12/26 03:27:49;;;;;;;56.00;31.90;;;;;;;3.19;100.00;100117.14;99160;1308;138968;-66
2022/12/26 03:33:01;;;;;;;54.00;30.50;;;;;;;3.20;100.00;100107.84;99253;1295;107309;-66
2022/12/26 03:35:33;;;;;;;48.30;28.90;;;;;;;3.21;100.00;100099.42;99112;1295;138949;-68
2022/12/26 03:38:06;;;;;;;47.80;28.00;;;;;;;3.21;100.00;100078.64;99409;1296;108528;-67
2022/12/26 04:20:51;;;;;;;33.90;20.90;;;;;;;3.26;100.00;100010.59;99336;1308;108198;-66
2022/12/26 04:46:15;;;;;;;32.20;20.40;;;;;;;3.22;100.00;99964.20;99487;1298;140409;-66
2022/12/26 04:51:32;;;;;;;28.50;18.80;;;;;;;3.21;100.00;99952.52;99598;1298;97982;-66
2022/12/26 04:53:59;;;;;;;29.20;18.90;;;;;;;3.19;100.00;99945.15;99586;1300;138338;-66
2022/12/26 04:56:27;;;;;;;30.10;20.50;;;;;;;3.17;100.00;99937.27;100108;1292;108590;-67
2022/12/26 04:58:54;;;;;;;28.10;19.10;;;;;;;3.17;100.00;99938.13;99809;1292;139527;-66
2022/12/26 05:09:38;;;;;;;26.60;17.80;;;;;;;3.14;100.00;99926.98;99996;1285;107774;-67
2022/12/26 05:12:08;;;;;;;27.40;18.40;;;;;;;3.12;100.00;99919.80;99961;1291;97842;-67
2022/12/26 05:14:35;;;;;;;29.70;18.30;;;;;;;3.10;100.00;99913.11;100565;1286;107511;-67
2022/12/26 05:30:53;;;;;;;23.80;15.80;;;;;;;3.06;100.00;99877.77;100310;1294;97326;-65
2022/12/26 05:36:06;;;;;;;23.60;16.20;;;;;;;3.05;100.00;99840.48;100326;1286;108037;-66
2022/12/26 05:38:34;;;;;;;24.50;15.40;;;;;;;3.03;100.00;99851.98;100070;1292;97850;-66
2022/12/26 05:41:01;;;;;;;22.10;16.40;;;;;;;3.02;100.00;99862.14;99897;1291;139260;-66
2022/12/26 05:43:29;;;;;;;24.50;15.90;;;;;;;3.01;100.00;99878.30;99954;1293;97835;-65
2022/12/26 05:45:56;;;;;;;23.80;15.80;;;;;;;3.01;100.00;99877.95;99860;1286;138235;-66
2022/12/26 05:48:23;;;;;;;21.20;14.70;;;;;;;3.02;100.00;99885.84;99950;1293;109794;-67
2022/12/26 05:50:50;;;;;;;22.90;15.00;;;;;;;3.01;100.00;99893.58;100063;1292;97827;-67
2022/12/26 05:53:18;;;;;;;20.80;15.00;;;;;;;3.00;100.00;99890.49;99867;1292;138279;-67
2022/12/26 05:55:45;;;;;;;20.80;14.60;;;;;;;3.00;100.00;99888.09;99923;1285;97753;-66
2022/12/26 05:58:12;;;;;;;20.80;14.60;;;;;;;3.01;100.00;99879.16;99856;1293;138287;-66
2022/12/26 06:00:40;;;;;;;22.90;14.70;;;;;;;3.01;100.00;99864.38;99992;1293;107609;-67
2022/12/26 06:03:07;;;;;;;20.80;14.10;;;;;;;3.01;100.00;99851.33;100017;1287;97850;-67
2022/12/26 06:05:34;;;;;;;19.20;14.10;;;;;;;3.01;100.00;99856.99;99877;1294;138452;-67
2022/12/26 06:08:01;;;;;;;19.40;13.50;;;;;;;3.00;100.00;99862.84;99907;1286;97937;-66
2022/12/26 06:10:29;;;;;;;17.60;12.80;;;;;;;3.01;100.00;99858.88;99907;1293;138135;-65
2022/12/26 06:12:56;;;;;;;20.60;13.90;;;;;;;3.02;100.00;99863.00;100005;1287;106757;-66
2022/12/26 06:15:23;;;;;;;18.00;13.60;;;;;;;3.03;100.00;99877.58;99962;1290;97900;-66
2022/12/26 06:17:50;;;;;;;17.50;12.70;;;;;;;3.04;100.00;99882.73;99853;1286;138711;-66
2022/12/26 06:20:18;;;;;;;17.80;11.90;;;;;;;3.04;100.00;99882.04;99968;1287;97818;-66
2022/12/26 06:22:45;;;;;;;18.40;13.40;;;;;;;3.04;100.00;99900.42;99857;1293;138588;-66
2022/12/26 06:25:13;;;;;;;19.50;13.00;;;;;;;3.05;100.00;99902.81;99911;1286;107056;-67
2022/12/26 06:27:42;;;;;;;16.90;12.30;;;;;;;3.06;100.00;99879.30;100010;1293;97848;-67
2022/12/26 06:30:11;;;;;;;16.70;12.30;;;;;;;3.06;100.00;99855.42;99950;1290;107322;-67
2022/12/26 06:32:38;;;;;;;21.00;13.30;;;;;;;3.05;100.00;99839.45;99954;1287;97913;-67
2022/12/26 06:35:06;;;;;;;17.80;12.60;;;;;;;3.05;100.00;99829.31;100119;1293;138444;-67
2022/12/26 06:37:34;;;;;;;14.40;11.30;;;;;;;3.04;100.00;99825.88;100212;1286;108964;-68
2022/12/26 06:40:01;;;;;;;17.80;12.90;;;;;;;3.02;100.00;99810.77;99789;1300;138580;-68
2022/12/26 06:42:31;;;;;;;18.40;13.60;;;;;;;3.02;100.00;99814.05;99849;1294;107214;-68
2022/12/26 06:44:58;;;;;;;19.20;13.10;;;;;;;3.01;100.00;99811.99;99806;1292;97700;-68
2022/12/26 06:47:25;;;;;;;17.00;13.10;;;;;;;3.01;100.00;99793.45;99790;1294;138376;-68
2022/12/26 06:49:52;;;;;;;20.10;14.00;;;;;;;3.01;100.00;99807.35;99960;1294;108576;-67
2022/12/26 06:52:20;;;;;;;18.80;13.70;;;;;;;3.01;100.00;99810.27;99996;1293;138436;-68
2022/12/26 06:54:47;;;;;;;19.80;14.50;;;;;;;3.00;100.00;99798.95;99805;1290;108181;-67
2022/12/26 06:57:14;;;;;;;19.90;12.80;;;;;;;3.00;100.00;99798.44;100521;1284;97737;-67
2022/12/26 06:59:41;;;;;;;18.70;13.90;;;;;;;3.01;100.00;99790.86;99830;1286;138338;-66
2022/12/26 07:02:11;;;;;;;18.50;13.20;;;;;;;3.02;100.00;99799.45;99961;1286;106962;-67
2022/12/26 07:04:39;;;;;;;19.20;12.50;;;;;;;3.04;100.00;99809.56;99894;1277;138287;-67
2022/12/26 07:07:06;;;;;;;17.10;12.90;;;;;;;3.07;100.00;99805.98;99997;1294;108612;-67
2022/12/26 07:09:33;;;;;;;18.00;13.60;;;;;;;3.07;100.00;99784.66;99944;1286;97833;-67
2022/12/26 07:12:00;;;;;;;19.60;13.80;;;;;;;3.08;100.00;99780.88;100126;1292;137971;-67
2022/12/26 07:14:27;;;;;;;19.90;14.40;;;;;;;3.08;100.00;99761.30;99877;1292;107984;-68
2022/12/26 07:16:55;;;;;;;18.90;13.90;;;;;;;3.07;100.00;99767.65;99865;1293;138534;-66
2022/12/26 07:19:22;;;;;;;19.20;14.10;;;;;;;3.08;100.00;99761.63;100132;1289;107990;-67
2022/12/26 07:21:49;;;;;;;20.40;13.90;;;;;;;3.09;100.00;99767.12;99924;1286;139102;-67
2022/12/26 07:24:19;;;;;;;19.40;13.50;;;;;;;3.08;100.00;99785.67;99884;1287;111797;-67
2022/12/26 07:26:47;;;;;;;21.50;15.00;;;;;;;3.09;100.00;99769.17;99839;1293;107348;-65
2022/12/26 07:29:15;;;;;;;21.90;14.70;;;;;;;3.10;100.00;99766.25;101061;1292;138575;-66
2022/12/26 07:31:42;;;;;;;22.40;15.10;;;;;;;3.11;100.00;99761.94;101261;1286;106681;-67
2022/12/26 07:34:10;;;;;;;21.30;14.50;;;;;;;3.12;100.00;99766.74;101092;1293;139746;-67
2022/12/26 07:36:37;;;;;;;20.60;14.00;;;;;;;3.13;100.00;99758.30;101219;1293;110747;-66
2022/12/26 07:39:05;;;;;;;19.90;14.30;;;;;;;3.15;100.00;99763.27;101145;1293;107940;-67
2022/12/26 07:44:16;;;;;;;19.20;13.10;;;;;;;3.20;100.00;99773.17;100070;1294;106682;-66
2022/12/26 07:46:45;;;;;;;20.10;14.00;;;;;;;3.22;100.00;99783.80;99924;1290;138473;-66
2022/12/26 07:49:14;;;;;;;20.90;12.90;;;;;;;3.23;100.00;99780.52;100050;1294;112109;-66
2022/12/26 07:51:42;;;;;;;19.50;13.60;;;;;;;3.23;100.00;99777.27;101119;1292;107382;-66
2022/12/26 07:54:10;;;;;;;21.10;14.30;;;;;;;3.24;100.00;99778.30;100265;1286;97963;-66
2022/12/26 07:56:38;;;;;;;17.40;12.90;;;;;;;3.23;100.00;99776.06;99887;1293;108368;-66
2022/12/26 07:59:05;;;;;;;18.50;12.70;;;;;;;3.24;100.00;99768.86;99968;1294;138982;-66
2022/12/26 08:01:33;;;;;;;17.60;12.40;;;;;;;3.27;100.00;99760.92;99845;1292;112164;-66
2022/12/26 08:04:00;;;;;;;20.20;12.70;;;;;;;3.28;100.00;99744.93;101121;1301;138408;-67
2022/12/26 08:06:28;;;;;;;20.00;12.00;;;;;;;3.30;100.00;99744.21;101256;1293;96804;-66
2022/12/26 08:08:55;;;;;;;18.50;12.90;;;;;;;3.34;100.00;99740.56;101279;1293;106738;-66
2022/12/26 08:11:24;;;;;;;19.90;13.30;;;;;;;3.35;100.00;99736.77;101180;1300;138406;-66
2022/12/26 08:13:51;;;;;;;19.30;12.90;;;;;;;3.40;100.00;99739.64;100123;1294;110862;-66
2022/12/26 08:16:19;;;;;;;20.30;13.70;;;;;;;3.42;100.00;99744.27;99741;1292;138682;-67
2022/12/26 08:18:46;;;;;;;21.00;14.00;;;;;;;3.44;100.00;99749.40;99957;1294;97866;-68
2022/12/26 08:21:14;;;;;;;20.10;13.10;;;;;;;3.44;100.00;99742.52;99976;1294;108010;-67
2022/12/26 08:23:41;;;;;;;20.80;13.30;;;;;;;3.46;100.00;99751.79;99993;1292;138895;-65
2022/12/26 08:26:11;;;;;;;22.20;15.00;;;;;;;3.47;100.00;99745.41;99995;1293;111386;-65
2022/12/26 08:28:41;;;;;;;22.10;14.60;;;;;;;3.49;100.00;99737.98;100475;1294;139482;-65
2022/12/26 08:31:10;;;;;;;20.50;14.40;;;;;;;3.54;100.00;99723.83;99856;1292;98357;-65
2022/12/26 08:33:37;;;;;;;23.10;14.90;;;;;;;3.59;100.00;99719.48;100009;1290;108348;-66
2022/12/26 08:36:07;;;;;;;18.70;14.40;;;;;;;3.62;100.00;99713.42;99897;1294;138779;-66
2022/12/26 08:38:34;;;;;;;24.70;16.10;;;;;;;3.65;100.00;99713.56;100240;1291;110757;-65
2022/12/26 08:41:01;;;;;;;20.70;14.80;;;;;;;3.67;100.00;99710.80;99795;1293;138664;-66
2022/12/26 08:43:29;;;;;;;22.30;15.00;;;;;;;3.69;100.00;99719.35;99902;1291;97947;-70
2022/12/26 08:46:16;;;;;;;21.90;14.60;;;;;;;3.72;100.00;99715.70;99816;1289;138382;-67
2022/12/26 08:48:44;;;;;;;23.70;15.80;;;;;;;3.74;100.00;99701.58;99929;1284;97736;-67
2022/12/26 08:51:15;;;;;;;22.40;15.20;;;;;;;3.76;100.00;99698.11;99899;1293;111393;-66
2022/12/26 08:53:42;;;;;;;27.20;16.20;;;;;;;3.81;100.00;99698.21;99845;1286;138385;-66
2022/12/26 08:56:13;;;;;;;25.30;16.10;;;;;;;3.86;100.00;99685.41;99827;1292;97710;-66
2022/12/26 08:58:40;;;;;;;23.20;16.00;;;;;;;3.92;100.00;99684.46;100144;1294;138160;-67
2022/12/26 09:01:13;;;;;;;21.20;15.20;;;;;;;3.97;100.00;99679.27;99987;1285;97844;-69
2022/12/26 09:03:41;;;;;;;24.80;16.10;;;;;;;4.01;100.00;99689.67;100451;1293;110276;-66
2022/12/26 09:06:10;;;;;;;22.80;16.00;;;;;;;4.05;100.00;99680.00;99886;1287;108415;-66
2022/12/26 09:08:38;;;;;;;26.30;16.00;;;;;;;4.08;100.00;99687.33;99895;1292;98603;-65
2022/12/26 09:11:09;;;;;;;24.50;16.10;;;;;;;4.11;100.00;99686.95;99811;1291;138143;-65
2022/12/26 09:13:38;;;;;;;23.10;15.20;;;;;;;4.13;100.00;99691.06;99928;1290;97842;-66
2022/12/26 09:16:11;;;;;;;25.80;16.50;;;;;;;4.15;100.00;99685.53;99927;1286;138685;-66
2022/12/26 09:18:39;;;;;;;25.30;15.50;;;;;;;4.17;100.00;99679.47;100087;1293;108609;-68
2022/12/26 09:21:09;;;;;;;22.10;15.30;;;;;;;4.19;100.00;99680.64;99993;1291;97850;-69
2022/12/26 09:23:37;;;;;;;24.80;15.90;;;;;;;4.18;100.00;99672.41;100381;1290;138032;-69
2022/12/26 09:26:10;;;;;;;27.90;17.20;;;;;;;4.19;100.00;99670.49;99776;1287;97925;-68
2022/12/26 09:28:38;;;;;;;24.00;16.60;;;;;;;4.19;100.00;99668.94;99674;1287;138215;-67
2022/12/26 09:31:07;;;;;;;25.30;15.70;;;;;;;4.19;100.00;99663.08;99817;1291;106835;-68
2022/12/26 09:33:36;;;;;;;23.20;16.10;;;;;;;4.21;100.00;99662.54;100017;1293;97895;-68
2022/12/26 09:36:09;;;;;;;27.50;16.50;;;;;;;4.23;100.00;99657.69;99748;1293;138092;-67
2022/12/26 09:38:41;;;;;;;27.90;17.00;;;;;;;4.27;100.00;99656.59;100249;1294;97841;-68
2022/12/26 09:41:28;;;;;;;23.50;16.00;;;;;;;4.31;100.00;99648.96;99818;1292;138465;-67
2022/12/26 09:44:05;;;;;;;24.40;16.80;;;;;;;4.37;100.00;99642.33;99780;1293;108135;-66
2022/12/26 09:46:40;;;;;;;26.30;16.50;;;;;;;4.39;100.00;99641.25;99776;1292;138365;-68
2022/12/26 09:49:13;;;;;;;28.60;17.20;;;;;;;4.43;100.00;99646.87;99932;1293;107379;-67
2022/12/26 09:51:44;;;;;;;25.60;16.00;;;;;;;4.46;100.00;99648.70;99960;1293;97810;-67
2022/12/26 09:54:25;;;;;;;27.90;17.00;;;;;;;4.49;100.00;99643.67;99998;1297;110525;-71
2022/12/26 09:56:53;;;;;;;26.90;17.50;;;;;;;4.52;100.00;99646.20;99765;1290;108031;-66
2022/12/26 09:59:31;;;;;;;27.60;16.40;;;;;;;4.59;100.00;99642.27;99816;1294;138420;-67
2022/12/26 10:01:58;;;;;;;27.70;17.80;;;;;;;4.65;100.00;99638.56;100281;1279;107852;-67
2022/12/26 10:04:29;;;;;;;28.80;17.10;;;;;;;4.70;100.00;99638.14;100155;1281;140349;-66
2022/12/26 10:07:06;;;;;;;28.90;17.50;;;;;;;4.76;100.00;99636.13;100353;1291;112251;-64
2022/12/26 10:10:09;;;;;;;27.00;17.80;;;;;;;4.81;100.00;99635.15;100190;1291;107508;-67
2022/12/26 10:12:47;;;;;;;29.80;19.30;;;;;;;4.88;100.00;99627.48;100118;1291;97821;-68
2022/12/26 10:15:33;;;;;;;29.70;18.60;;;;;;;4.93;100.00;99627.55;100041;1288;106742;-67
2022/12/26 10:18:18;;;;;;;27.50;18.10;;;;;;;4.97;100.00;99629.52;99966;1288;138486;-67
2022/12/26 10:21:09;;;;;;;27.80;18.60;;;;;;;5.00;100.00;99618.25;100164;1290;112796;-66
2022/12/26 10:23:39;;;;;;;27.20;17.70;;;;;;;5.05;100.00;99618.00;100322;1287;138564;-66
2022/12/26 10:26:14;;;;;;;28.50;19.30;;;;;;;5.11;100.00;99622.70;100242;1282;98451;-68
2022/12/26 10:28:46;;;;;;;27.80;18.10;;;;;;;5.17;100.00;99621.54;99973;1287;138283;-68
2022/12/26 10:31:19;;;;;;;31.60;18.90;;;;;;;5.24;100.00;99617.96;99986;1283;97845;-68
2022/12/26 10:33:52;;;;;;;29.80;18.30;;;;;;;5.31;100.00;99610.05;100066;1290;110690;-69
2022/12/26 10:36:31;;;;;;;28.60;18.80;;;;;;;5.40;100.00;99607.81;99997;1288;108340;-68
2022/12/26 10:39:01;;;;;;;29.20;18.60;;;;;;;5.51;100.00;99601.19;100099;1290;97732;-68
2022/12/26 10:41:32;;;;;;;28.20;18.30;;;;;;;5.60;100.00;99602.89;99930;1281;138308;-68
2022/12/26 10:43:59;;;;;;;29.10;18.50;;;;;;;5.68;100.00;99598.39;99875;1289;96405;-68
2022/12/26 10:47:05;;;;;;;29.20;19.20;;;;;;;5.76;100.00;99595.27;100132;1290;138356;-68
2022/12/26 10:49:33;;;;;;;28.20;18.30;;;;;;;5.89;100.00;99594.65;100051;1289;107159;-68
2022/12/26 10:52:02;;;;;;;29.60;18.20;;;;;;;6.00;100.00;99582.84;100032;1284;138659;-68
2022/12/26 10:54:31;;;;;;;29.60;17.60;;;;;;;6.09;100.00;99572.94;100102;1283;108149;-68
2022/12/26 10:57:01;;;;;;;27.50;18.00;;;;;;;6.18;100.00;99565.15;100089;1281;97736;-68
2022/12/26 10:59:40;;;;;;;29.80;18.30;;;;;;;6.24;100.00;99570.66;100261;1290;138476;-68
2022/12/26 11:02:25;;;;;;;30.30;17.90;;;;;;;6.32;100.00;99570.84;99978;1292;106768;-68
2022/12/26 11:05:11;;;;;;;28.30;18.10;;;;;;;6.39;100.00;99572.87;99911;1291;138378;-69
2022/12/26 11:08:09;;;;;;;25.80;17.20;;;;;;;6.47;100.00;99572.52;99910;1296;108470;-69
2022/12/26 11:10:37;;;;;;;26.80;17.30;;;;;;;6.53;100.00;99579.09;99889;1284;138465;-69
2022/12/26 11:13:08;;;;;;;27.60;17.90;;;;;;;6.59;100.00;99572.86;100377;1298;109729;-69
2022/12/26 11:15:38;;;;;;;27.90;17.30;;;;;;;6.65;100.00;99570.48;100323;1291;107869;-69
2022/12/26 11:18:17;;;;;;;24.20;15.90;;;;;;;6.72;100.00;99571.68;100398;1297;138339;-70
2022/12/26 11:20:46;;;;;;;26.20;16.40;;;;;;;6.79;100.00;99567.66;99770;1291;107448;-69
2022/12/26 11:23:27;;;;;;;25.30;16.50;;;;;;;6.87;100.00;99565.54;99694;1291;138440;-70
2022/12/26 11:25:55;;;;;;;24.90;17.10;;;;;;;6.97;100.00;99560.93;99772;1291;111439;-69
2022/12/26 11:28:33;;;;;;;22.10;15.60;;;;;;;7.07;100.00;99567.58;99812;1291;138733;-69
2022/12/26 11:31:01;;;;;;;21.50;15.60;;;;;;;7.16;100.00;99570.41;99926;1301;97804;-69
2022/12/26 11:33:31;;;;;;;26.20;14.90;;;;;;;7.25;100.00;99566.53;99885;1291;108081;-68
2022/12/26 11:36:08;;;;;;;20.60;14.20;;;;;;;7.35;100.00;99564.84;99906;1291;138555;-68
2022/12/26 11:38:47;;;;;;;22.30;14.00;;;;;;;7.47;100.00;99562.73;99960;1297;110947;-70
2022/12/26 11:41:35;;;;;;;19.50;12.80;;;;;;;7.60;100.00;99561.84;100410;1294;139063;-72
2022/12/26 11:44:13;;;;;;;18.60;12.70;;;;;;;7.72;100.00;99557.30;99945;1283;97847;-69
2022/12/26 11:46:42;;;;;;;19.20;12.70;;;;;;;7.82;100.00;99556.11;99803;1291;139104;-68
2022/12/26 11:49:23;;;;;;;18.40;12.50;;;;;;;7.91;100.00;99552.04;99987;1284;97859;-68
2022/12/26 11:51:54;;;;;;;21.00;12.70;;;;;;;8.02;100.00;99544.41;99825;1297;138872;-68
2022/12/26 11:54:31;;;;;;;20.10;12.90;;;;;;;8.15;100.00;99539.44;99769;1281;109320;-68
2022/12/26 11:57:09;;;;;;;19.30;12.40;;;;;;;8.36;100.00;99537.04;101335;1294;96015;-68
2022/12/26 11:59:38;;;;;;;20.80;12.00;;;;;;;8.58;100.00;99533.15;99921;1292;138436;-69
2022/12/26 12:02:26;;;;;;;19.90;12.20;;;;;;;8.71;100.00;99530.95;99759;1290;97811;-68
2022/12/26 12:04:58;;;;;;;17.10;11.90;;;;;;;8.82;100.00;99528.48;99600;1286;138254;-69
2022/12/26 12:07:56;;;;;;;17.20;11.90;;;;;;;8.91;100.00;99524.65;99996;1291;108700;-69
2022/12/26 12:10:46;;;;;;;;;;;;;;;8.98;100.00;99522.52;99632;1290;138730;-68
2022/12/26 12:13:21;;;;;;;18.60;11.80;;;;;;;8.98;100.00;99516.96;99526;1292;107472;-69
2022/12/26 12:15:57;;;;;;;16.50;11.10;;;;;;;8.99;100.00;99521.11;99663;1283;97821;-67
2022/12/26 12:18:39;;;;;;;18.60;11.90;;;;;;;8.97;100.00;99522.54;100287;1298;112095;-68
2022/12/26 12:21:18;;;;;;;20.20;11.80;;;;;;;8.99;100.00;99528.37;100115;1288;107388;-67
2022/12/26 12:24:08;;;;;;;18.50;12.40;;;;;;;9.00;100.00;99531.13;101130;1284;138835;-68
2022/12/26 12:26:45;;;;;;;19.30;12.20;;;;;;;9.01;100.00;99538.54;101216;1285;108103;-67
2022/12/26 12:29:33;;;;;;;16.60;11.50;;;;;;;8.99;100.00;99530.45;101182;1292;138707;-68
2022/12/26 12:32:13;;;;;;;17.30;12.10;;;;;;;8.96;100.00;99528.10;100312;1295;109399;-67
2022/12/26 12:35:03;;;;;;;18.20;11.40;;;;;;;8.93;100.00;99533.79;100181;1291;139150;-68
2022/12/26 12:37:49;;;;;;;22.50;12.10;;;;;;;8.90;100.00;99537.02;99820;1298;98356;-69
2022/12/26 12:40:29;;;;;;;18.20;12.00;;;;;;;8.89;100.00;99538.97;100531;1298;138850;-68
2022/12/26 12:43:07;;;;;;;18.20;12.40;;;;;;;8.86;100.00;99540.81;101362;1295;95774;-68
2022/12/26 12:45:40;;;;;;;21.30;11.80;;;;;;;8.87;100.00;99539.90;100779;1297;110753;-68
2022/12/26 12:48:40;;;;;;;19.10;11.60;;;;;;;8.90;100.00;99537.05;99875;1291;139678;-68
2022/12/26 12:51:18;;;;;;;18.50;11.90;;;;;;;8.92;100.00;99540.58;99986;1296;97921;-68
2022/12/26 12:54:26;;;;;;;18.20;11.20;;;;;;;8.94;100.00;99546.05;99789;1292;138354;-68
2022/12/26 12:57:05;;;;;;;18.20;11.50;;;;;;;8.95;100.00;99552.25;99753;1287;97790;-68
2022/12/26 12:59:44;;;;;;;17.90;11.20;;;;;;;8.95;100.00;99557.48;99711;1290;138296;-68
2022/12/26 13:02:20;;;;;;;17.20;11.40;;;;;;;8.94;100.00;99553.67;99964;1291;106987;-69
2022/12/26 13:04:54;;;;;;;19.90;11.50;;;;;;;8.95;100.00;99546.89;99871;1291;138513;-69
2022/12/26 13:07:30;;;;;;;17.60;11.50;;;;;;;8.96;100.00;99546.69;99829;1299;106528;-69
2022/12/26 13:10:01;;;;;;;16.70;11.80;;;;;;;8.96;100.00;99551.02;99807;1298;138685;-69
2022/12/26 13:12:33;;;;;;;17.20;11.70;;;;;;;8.95;100.00;99549.48;99988;1290;111608;-68
2022/12/26 13:15:06;;;;;;;17.90;11.50;;;;;;;8.95;100.00;99547.09;99907;1290;107869;-69
2022/12/26 13:17:39;;;;;;;16.00;11.20;;;;;;;8.94;100.00;99551.44;99471;1282;139384;-69
2022/12/26 13:20:16;;;;;;;18.50;11.80;;;;;;;8.95;100.00;99553.12;100037;1284;107565;-69
2022/12/26 13:25:35;;;;;;;16.60;11.10;;;;;;;8.95;100.00;99552.41;99278;1296;111274;-69
2022/12/26 13:28:10;;;;;;;19.10;11.60;;;;;;;8.95;100.00;99550.18;99195;1296;138799;-67
2022/12/26 13:30:38;;;;;;;16.30;11.60;;;;;;;8.93;100.00;99550.97;99433;1304;97726;-69
2022/12/26 13:33:06;;;;;;;17.60;11.60;;;;;;;8.92;100.00;99555.48;99463;1290;107673;-69
2022/12/26 13:35:52;;;;;;;17.10;11.10;;;;;;;8.92;100.00;99552.90;99259;1297;139161;-69
2022/12/26 13:38:20;;;;;;;17.50;11.40;;;;;;;8.92;100.00;99552.54;99232;1296;110372;-69
2022/12/26 13:40:52;;;;;;;18.70;11.60;;;;;;;8.92;100.00;99558.08;99289;1298;138637;-68
2022/12/26 13:46:37;;;;;;;15.70;10.80;;;;;;;8.95;100.00;99552.61;99226;1296;138703;-68
2022/12/26 13:49:05;;;;;;;15.30;10.90;;;;;;;8.94;100.00;99546.77;99652;1303;97892;-68